createdAt,value
2018-06-13T00:01:34.061Z,12.20
2018-06-13T00:04:09.588Z,12.20
2018-06-13T00:06:45.207Z,12.10
2018-06-13T00:09:20.884Z,12.10
2018-06-13T00:11:56.285Z,12.10
2018-06-13T00:14:31.983Z,12.10
2018-06-13T00:17:07.532Z,12.10
2018-06-13T00:19:43.128Z,12.10
2018-06-13T00:22:18.570Z,12.10
2018-06-13T00:24:54.048Z,12.20
2018-06-13T00:27:29.503Z,12.20
2018-06-13T00:30:05.103Z,12.20
2018-06-13T00:32:40.564Z,12.20
2018-06-13T00:35:16.159Z,12.20
2018-06-13T00:37:51.612Z,12.20
2018-06-13T00:40:27.067Z,12.20
2018-06-13T00:43:02.492Z,12.20
2018-06-13T00:45:38.117Z,12.20
2018-06-13T00:48:13.632Z,12.20
2018-06-13T00:50:49.239Z,12.20
2018-06-13T00:53:24.621Z,12.10
2018-06-13T00:56:11.524Z,12.20
2018-06-13T00:58:46.907Z,12.20
2018-06-13T01:01:22.363Z,12.20
2018-06-13T01:03:57.950Z,12.20
2018-06-13T01:06:33.388Z,12.10
2018-06-13T01:09:08.835Z,12.10
2018-06-13T01:11:44.444Z,12.10
2018-06-13T01:14:19.888Z,12.10
2018-06-13T01:16:55.437Z,12.10
2018-06-13T01:19:30.839Z,12.10
2018-06-13T01:22:06.800Z,12.10
2018-06-13T01:24:42.286Z,12.10
2018-06-13T01:27:17.859Z,12.10
2018-06-13T01:29:53.348Z,12.10
2018-06-13T01:32:28.926Z,12.10
2018-06-13T01:35:04.587Z,12.10
2018-06-13T01:37:40.160Z,12.10
2018-06-13T01:40:15.659Z,12.10
2018-06-13T01:42:51.247Z,12.10
2018-06-13T01:45:26.679Z,12.10
2018-06-13T01:48:02.282Z,12.10
2018-06-13T01:50:38.288Z,12.10
2018-06-13T01:53:13.700Z,12.10
2018-06-13T01:55:49.121Z,12.10
2018-06-13T01:58:24.588Z,12.10
2018-06-13T02:01:00.089Z,12.10
2018-06-13T02:03:35.718Z,12.10
2018-06-13T02:06:11.160Z,12.10
2018-06-13T02:08:46.671Z,12.10
2018-06-13T02:11:22.275Z,12.00
2018-06-13T02:13:57.851Z,12.00
2018-06-13T02:16:33.481Z,12.00
2018-06-13T02:19:09.040Z,12.00
2018-06-13T02:21:44.591Z,12.00
2018-06-13T02:24:20.159Z,12.00
2018-06-13T02:26:55.627Z,12.00
2018-06-13T02:29:31.093Z,12.00
2018-06-13T02:32:06.654Z,12.00
2018-06-13T02:34:42.243Z,12.00
2018-06-13T02:37:17.648Z,12.00
2018-06-13T02:39:53.291Z,12.00
2018-06-13T02:42:28.732Z,12.00
2018-06-13T02:45:04.469Z,12.00
2018-06-13T02:47:39.928Z,12.00
2018-06-13T02:50:15.484Z,12.00
2018-06-13T02:52:51.016Z,12.00
2018-06-13T02:55:26.588Z,12.00
2018-06-13T02:58:02.144Z,12.00
2018-06-13T03:00:37.657Z,12.00
2018-06-13T03:03:13.329Z,12.00
2018-06-13T03:05:48.776Z,12.00
2018-06-13T03:08:24.415Z,12.00
2018-06-13T03:10:59.836Z,12.00
2018-06-13T03:13:35.284Z,12.10
2018-06-13T03:16:10.879Z,12.00
2018-06-13T03:18:46.329Z,12.00
2018-06-13T03:21:21.825Z,12.00
2018-06-13T03:23:57.448Z,12.10
2018-06-13T03:26:33.025Z,12.10
2018-06-13T03:29:08.677Z,12.10
2018-06-13T03:31:44.100Z,12.10
2018-06-13T03:34:19.663Z,12.10
2018-06-13T03:36:55.264Z,12.10
2018-06-13T03:39:30.759Z,12.10
2018-06-13T03:42:06.385Z,12.10
2018-06-13T03:44:41.796Z,12.10
2018-06-13T03:47:17.321Z,12.10
2018-06-13T03:49:52.752Z,12.10
2018-06-13T03:52:28.373Z,12.10
2018-06-13T03:55:03.924Z,12.10
2018-06-13T03:57:39.540Z,12.10
2018-06-13T04:00:15.082Z,12.10
2018-06-13T04:02:50.685Z,12.10
2018-06-13T04:05:26.312Z,12.10
2018-06-13T04:08:01.797Z,12.10
2018-06-13T04:10:37.224Z,12.20
2018-06-13T04:13:12.781Z,12.20
2018-06-13T04:15:48.158Z,12.20
2018-06-13T04:18:23.751Z,12.30
2018-06-13T04:20:59.369Z,12.30
2018-06-13T04:23:34.908Z,12.30
2018-06-13T04:26:10.321Z,12.30
2018-06-13T04:28:45.924Z,12.40
2018-06-13T04:31:21.564Z,12.40
2018-06-13T04:33:57.084Z,12.50
2018-06-13T04:36:32.704Z,12.50
2018-06-13T04:39:09.487Z,12.50
2018-06-13T04:41:44.965Z,12.50
2018-06-13T04:44:20.371Z,12.60
2018-06-13T04:46:55.891Z,12.60
2018-06-13T04:49:31.273Z,12.60
2018-06-13T04:52:06.728Z,12.60
2018-06-13T04:54:42.257Z,12.70
2018-06-13T04:57:17.857Z,12.70
2018-06-13T04:59:53.309Z,12.80
2018-06-13T05:02:28.679Z,12.80
2018-06-13T05:05:04.369Z,12.80
2018-06-13T05:07:39.811Z,12.80
2018-06-13T05:10:15.532Z,12.90
2018-06-13T05:12:50.948Z,13.00
2018-06-13T05:15:26.604Z,13.00
2018-06-13T05:18:02.061Z,13.00
2018-06-13T05:20:37.740Z,13.20
2018-06-13T05:23:13.172Z,13.20
2018-06-13T05:25:48.660Z,13.20
2018-06-13T05:28:24.152Z,13.20
2018-06-13T05:30:59.675Z,13.20
2018-06-13T05:33:35.275Z,13.30
2018-06-13T05:36:10.844Z,13.30
2018-06-13T05:38:46.529Z,13.30
2018-06-13T05:41:22.066Z,13.40
2018-06-13T05:43:57.577Z,13.40
2018-06-13T05:46:33.077Z,13.60
2018-06-13T05:49:08.557Z,13.80
2018-06-13T05:51:44.168Z,13.90
2018-06-13T05:54:19.672Z,14.00
2018-06-13T05:56:55.185Z,14.10
2018-06-13T05:59:30.678Z,14.20
2018-06-13T06:02:06.320Z,14.20
2018-06-13T06:04:41.789Z,14.10
2018-06-13T06:07:17.347Z,14.00
2018-06-13T06:09:52.957Z,14.00
2018-06-13T06:12:28.664Z,13.90
2018-06-13T06:15:04.170Z,13.70
2018-06-13T06:17:39.820Z,13.60
2018-06-13T06:20:15.511Z,13.50
2018-06-13T06:22:51.071Z,13.50
2018-06-13T06:25:28.547Z,13.50
2018-06-13T06:28:04.252Z,13.50
2018-06-13T06:30:39.721Z,13.50
2018-06-13T06:33:15.173Z,13.50
2018-06-13T06:35:50.761Z,13.50
2018-06-13T06:38:26.460Z,13.50
2018-06-13T06:41:02.080Z,13.60
2018-06-13T06:43:37.555Z,13.60
2018-06-13T06:46:13.123Z,13.60
2018-06-13T06:48:48.711Z,13.70
2018-06-13T06:51:24.180Z,13.70
2018-06-13T06:53:59.689Z,13.80
2018-06-13T06:56:35.310Z,13.80
2018-06-13T06:59:10.933Z,13.90
2018-06-13T07:01:46.361Z,14.00
2018-06-13T07:04:21.963Z,14.20
2018-06-13T07:06:57.668Z,14.30
2018-06-13T07:09:33.247Z,14.30
2018-06-13T07:12:08.821Z,14.30
2018-06-13T07:14:44.408Z,14.30
2018-06-13T07:17:20.031Z,14.30
2018-06-13T07:19:55.677Z,14.30
2018-06-13T07:22:31.109Z,14.30
2018-06-13T07:25:06.717Z,14.40
2018-06-13T07:27:42.324Z,14.50
2018-06-13T07:30:17.809Z,14.60
2018-06-13T07:32:53.308Z,14.60
2018-06-13T07:35:28.961Z,14.70
2018-06-13T07:38:04.401Z,14.80
2018-06-13T07:40:39.889Z,14.80
2018-06-13T07:43:15.356Z,15.00
2018-06-13T07:45:50.877Z,15.80
2018-06-13T07:48:26.474Z,16.00
2018-06-13T07:51:02.033Z,15.60
2018-06-13T07:53:37.647Z,15.30
2018-06-13T07:56:13.232Z,15.20
2018-06-13T07:58:48.886Z,15.50
2018-06-13T08:01:24.457Z,17.20
2018-06-13T08:03:59.929Z,18.50
2018-06-13T08:06:35.456Z,17.70
2018-06-13T08:09:11.001Z,16.90
2018-06-13T08:11:46.625Z,17.10
2018-06-13T08:14:22.208Z,19.00
2018-06-13T08:16:57.997Z,18.00
2018-06-13T08:19:33.449Z,17.00
2018-06-13T08:22:08.937Z,16.60
2018-06-13T08:24:54.956Z,16.40
2018-06-13T08:27:30.408Z,16.40
2018-06-13T08:30:06.017Z,16.30
2018-06-13T08:32:41.465Z,16.10
2018-06-13T08:35:17.015Z,16.60
2018-06-13T08:37:52.923Z,17.70
2018-06-13T08:40:28.376Z,18.80
2018-06-13T08:43:03.975Z,20.10
2018-06-13T08:45:39.562Z,20.10
2018-06-13T08:48:15.077Z,18.70
2018-06-13T08:50:50.687Z,17.80
2018-06-13T08:53:26.390Z,17.10
2018-06-13T08:56:01.966Z,17.10
2018-06-13T08:58:37.407Z,17.50
2018-06-13T09:03:48.024Z,17.20
2018-06-13T09:06:23.737Z,18.50
2018-06-13T09:08:59.368Z,20.90
2018-06-13T09:11:35.495Z,20.00
2018-06-13T09:14:11.135Z,18.90
2018-06-13T09:16:46.861Z,17.90
2018-06-13T09:19:22.411Z,20.10
2018-06-13T09:21:57.811Z,21.40
2018-06-13T09:24:33.453Z,20.30
2018-06-13T09:27:08.936Z,18.80
2018-06-13T09:29:44.579Z,18.10
2018-06-13T09:32:20.151Z,17.60
2018-06-13T09:34:55.699Z,19.50
2018-06-13T09:37:31.336Z,18.70
2018-06-13T09:40:06.816Z,18.30
2018-06-13T09:42:42.347Z,19.00
2018-06-13T09:45:17.994Z,18.50
2018-06-13T09:47:53.695Z,18.00
2018-06-13T09:50:29.304Z,17.70
2018-06-13T09:53:04.704Z,18.80
2018-06-13T09:55:40.201Z,18.20
2018-06-13T09:58:15.840Z,18.50
2018-06-13T10:00:56.857Z,19.90
2018-06-13T10:03:32.478Z,20.50
2018-06-13T10:06:07.939Z,20.10
2018-06-13T10:08:43.412Z,19.00
2018-06-13T10:11:19.169Z,18.80
2018-06-13T10:13:54.751Z,19.00
2018-06-13T10:16:30.403Z,18.90
2018-06-13T10:19:06.017Z,19.00
2018-06-13T10:21:41.577Z,19.00
2018-06-13T10:24:17.209Z,18.90
2018-06-13T10:26:52.909Z,19.10
2018-06-13T10:29:28.478Z,19.30
2018-06-13T10:32:03.921Z,19.10
2018-06-13T10:34:39.334Z,19.00
2018-06-13T10:37:15.048Z,20.20
2018-06-13T10:39:50.500Z,20.10
2018-06-13T10:42:26.033Z,19.80
2018-06-13T10:45:01.502Z,19.70
2018-06-13T10:47:37.232Z,19.30
2018-06-13T10:50:12.661Z,18.60
2018-06-13T10:52:48.371Z,18.40
2018-06-13T10:55:23.976Z,18.30
2018-06-13T10:57:59.503Z,18.20
2018-06-13T11:00:35.681Z,18.50
2018-06-13T11:03:11.957Z,18.70
2018-06-13T11:05:47.777Z,20.00
2018-06-13T11:08:23.410Z,19.10
2018-06-13T11:10:58.848Z,19.10
2018-06-13T11:13:34.517Z,19.00
2018-06-13T11:16:09.986Z,18.80
2018-06-13T11:18:45.501Z,18.40
2018-06-13T11:21:21.027Z,18.00
2018-06-13T11:23:56.716Z,17.70
2018-06-13T11:26:32.169Z,17.70
2018-06-13T11:29:08.492Z,17.70
2018-06-13T11:31:45.624Z,17.90
2018-06-13T11:34:22.047Z,18.50
2018-06-13T11:36:58.654Z,18.90
2018-06-13T11:39:34.291Z,18.50
2018-06-13T11:42:09.936Z,18.20
2018-06-13T11:44:45.429Z,18.10
2018-06-13T11:47:21.024Z,17.70
2018-06-13T11:49:56.493Z,17.30
2018-06-13T11:52:32.110Z,17.20
2018-06-13T11:55:07.722Z,17.10
2018-06-13T11:57:43.167Z,17.20
2018-06-13T12:00:18.810Z,17.20
2018-06-13T12:02:54.308Z,17.40
2018-06-13T12:05:29.975Z,17.60
2018-06-13T12:08:05.453Z,17.90
2018-06-13T12:10:41.192Z,18.20
2018-06-13T12:13:17.488Z,18.20
2018-06-13T12:15:53.300Z,18.20
2018-06-13T12:18:28.785Z,18.10
2018-06-13T12:21:04.412Z,17.70
2018-06-13T12:23:39.941Z,17.50
2018-06-13T12:26:15.620Z,17.40
2018-06-13T12:28:51.298Z,17.70
2018-06-13T12:31:27.017Z,17.90
2018-06-13T12:34:02.625Z,18.10
2018-06-13T12:36:38.225Z,18.10
2018-06-13T12:39:13.850Z,17.80
2018-06-13T12:41:49.449Z,17.70
2018-06-13T12:44:25.080Z,17.50
2018-06-13T12:47:00.533Z,17.40
2018-06-13T12:49:36.011Z,17.30
2018-06-13T12:52:11.579Z,17.20
2018-06-13T12:54:47.064Z,17.60
2018-06-13T12:57:22.669Z,17.50
2018-06-13T12:59:58.141Z,17.50
2018-06-13T13:02:33.587Z,17.60
2018-06-13T13:05:09.129Z,17.70
2018-06-13T13:07:44.609Z,17.70
2018-06-13T13:10:20.253Z,17.60
2018-06-13T13:12:55.897Z,17.40
2018-06-13T13:15:31.530Z,17.60
2018-06-13T13:18:07.171Z,17.60
2018-06-13T13:20:42.608Z,17.50
2018-06-13T13:23:18.320Z,17.50
2018-06-13T13:25:53.948Z,17.50
2018-06-13T13:28:29.500Z,17.20
2018-06-13T13:31:05.097Z,16.80
2018-06-13T13:33:40.563Z,16.70
2018-06-13T13:36:16.028Z,16.70
2018-06-13T13:38:51.636Z,16.80
2018-06-13T13:41:27.208Z,16.90
2018-06-13T13:44:02.888Z,16.90
2018-06-13T13:46:38.513Z,17.10
2018-06-13T13:49:14.137Z,16.90
2018-06-13T13:51:49.812Z,16.90
2018-06-13T13:54:25.488Z,16.90
2018-06-13T13:57:01.129Z,17.10
2018-06-13T13:59:36.570Z,17.60
2018-06-13T14:02:12.201Z,18.00
2018-06-13T14:04:47.818Z,17.90
2018-06-13T14:07:23.469Z,17.70
2018-06-13T14:09:59.180Z,17.50
2018-06-13T14:12:34.825Z,17.50
2018-06-13T14:15:10.389Z,17.40
2018-06-13T14:17:46.135Z,17.10
2018-06-13T14:20:21.776Z,17.10
2018-06-13T14:22:57.345Z,16.90
2018-06-13T14:25:32.937Z,16.80
2018-06-13T14:28:08.556Z,16.80
2018-06-13T14:30:44.261Z,16.60
2018-06-13T14:33:19.774Z,16.70
2018-06-13T14:35:55.453Z,16.80
2018-06-13T14:38:31.008Z,16.90
2018-06-13T14:41:06.532Z,17.00
2018-06-13T14:43:42.328Z,17.10
2018-06-13T14:46:18.111Z,17.20
2018-06-13T14:48:53.873Z,17.20
2018-06-13T14:51:29.441Z,17.10
2018-06-13T14:54:05.263Z,17.20
2018-06-13T14:56:41.595Z,17.40
2018-06-13T14:59:17.390Z,17.30
2018-06-13T15:01:52.985Z,17.20
2018-06-13T15:04:32.938Z,17.00
2018-06-13T15:07:08.585Z,16.90
2018-06-13T15:09:44.156Z,16.90
2018-06-13T15:12:19.925Z,17.10
2018-06-13T15:14:55.619Z,17.10
2018-06-13T15:17:31.312Z,17.00
2018-06-13T15:20:06.945Z,17.00
2018-06-13T15:22:43.061Z,17.00
2018-06-13T15:25:18.872Z,16.80
2018-06-13T15:27:54.544Z,17.00
2018-06-13T15:30:30.236Z,16.90
2018-06-13T15:33:05.809Z,16.80
2018-06-13T15:35:41.470Z,16.70
2018-06-13T15:38:17.374Z,16.60
2018-06-13T15:40:52.828Z,16.70
2018-06-13T15:43:28.436Z,16.80
2018-06-13T15:46:04.099Z,16.70
2018-06-13T15:48:39.741Z,16.80
2018-06-13T15:51:15.168Z,17.00
2018-06-13T15:53:50.800Z,17.00
2018-06-13T15:56:26.484Z,16.90
2018-06-13T15:59:02.537Z,16.80
2018-06-13T16:01:38.031Z,16.70
2018-06-13T16:04:13.776Z,16.60
2018-06-13T16:06:49.310Z,16.50
2018-06-13T16:09:24.899Z,16.50
2018-06-13T16:12:00.535Z,16.50
2018-06-13T16:14:35.964Z,16.60
2018-06-13T16:17:11.392Z,16.70
2018-06-13T16:19:46.896Z,16.80
2018-06-13T16:22:22.368Z,16.80
2018-06-13T16:24:58.020Z,16.80
2018-06-13T16:27:33.791Z,16.80
2018-06-13T16:30:09.289Z,16.60
2018-06-13T16:32:44.925Z,16.60
2018-06-13T16:35:20.559Z,16.50
2018-06-13T16:37:56.419Z,16.40
2018-06-13T16:40:31.933Z,16.30
2018-06-13T16:43:07.588Z,16.20
2018-06-13T16:45:43.180Z,16.10
2018-06-13T16:48:18.726Z,16.10
2018-06-13T16:51:05.488Z,16.10
2018-06-13T16:53:56.152Z,16.00
2018-06-13T16:56:31.817Z,15.90
2018-06-13T16:59:07.453Z,15.90
2018-06-13T17:01:42.984Z,15.80
2018-06-13T17:04:18.472Z,15.70
2018-06-13T17:06:54.065Z,15.70
2018-06-13T17:09:29.521Z,15.70
2018-06-13T17:12:05.184Z,15.70
2018-06-13T17:14:40.770Z,16.00
2018-06-13T17:17:16.312Z,16.00
2018-06-13T17:22:26.917Z,16.00
2018-06-13T17:25:02.337Z,15.80
2018-06-13T17:27:38.009Z,15.80
2018-06-13T17:30:13.661Z,15.80
2018-06-13T17:32:49.241Z,15.70
2018-06-13T17:35:24.705Z,15.70
2018-06-13T17:38:00.299Z,15.60
2018-06-13T17:40:35.903Z,15.50
2018-06-13T17:43:11.491Z,15.40
2018-06-13T17:45:47.048Z,15.30
2018-06-13T17:48:22.448Z,15.30
2018-06-13T17:50:57.996Z,15.30
2018-06-13T17:53:33.653Z,15.40
2018-06-13T17:56:09.163Z,15.40
2018-06-13T17:58:44.786Z,15.40
2018-06-13T18:01:20.466Z,15.40
2018-06-13T18:03:56.276Z,15.40
2018-06-13T18:06:31.820Z,15.40
2018-06-13T18:09:08.928Z,15.30
2018-06-13T18:11:44.404Z,15.30
2018-06-13T18:14:19.936Z,15.30
2018-06-13T18:16:55.464Z,15.30
2018-06-13T18:19:31.093Z,15.30
2018-06-13T18:22:06.576Z,15.30
2018-06-13T18:24:42.123Z,15.20
2018-06-13T18:27:17.667Z,15.20
2018-06-13T18:29:53.152Z,15.10
2018-06-13T18:32:28.801Z,15.10
2018-06-13T18:35:04.513Z,15.10
2018-06-13T18:37:40.168Z,15.10
2018-06-13T18:40:15.775Z,15.00
2018-06-13T18:42:51.561Z,15.00
2018-06-13T18:45:27.152Z,15.00
2018-06-13T18:48:02.566Z,15.00
2018-06-13T18:50:38.163Z,14.90
2018-06-13T18:53:13.721Z,14.90
2018-06-13T18:55:49.241Z,14.90
2018-06-13T18:58:24.765Z,14.80
2018-06-13T19:01:00.405Z,14.80
2018-06-13T19:03:36.000Z,14.80
2018-06-13T19:06:11.452Z,14.70
2018-06-13T19:08:46.785Z,14.70
2018-06-13T19:11:22.389Z,14.70
2018-06-13T19:13:58.004Z,14.70
2018-06-13T19:16:33.603Z,14.70
2018-06-13T19:19:09.051Z,14.60
2018-06-13T19:21:44.697Z,14.60
2018-06-13T19:24:20.189Z,14.60
2018-06-13T19:26:55.612Z,14.60
2018-06-13T19:29:31.069Z,14.50
2018-06-13T19:32:06.729Z,14.50
2018-06-13T19:34:42.238Z,14.50
2018-06-13T19:37:17.817Z,14.50
2018-06-13T19:39:53.390Z,14.40
2018-06-13T19:42:29.059Z,14.40
2018-06-13T19:45:04.600Z,14.40
2018-06-13T19:47:45.491Z,14.30
2018-06-13T19:50:21.134Z,14.40
2018-06-13T19:53:02.104Z,14.30
2018-06-13T19:55:43.040Z,14.20
2018-06-13T19:58:18.707Z,14.20
2018-06-13T20:00:54.328Z,14.20
2018-06-13T20:03:35.196Z,14.20
2018-06-13T20:06:11.326Z,14.10
2018-06-13T20:08:46.892Z,14.10
2018-06-13T20:11:22.524Z,14.10
2018-06-13T20:14:04.187Z,14.10
2018-06-13T20:16:49.987Z,14.10
2018-06-13T20:19:30.792Z,14.10
2018-06-13T20:22:06.359Z,14.10
2018-06-13T20:24:46.192Z,14.10
2018-06-13T20:27:27.076Z,14.10
2018-06-13T20:30:07.965Z,14.10
2018-06-13T20:32:43.544Z,14.00
2018-06-13T20:35:19.172Z,14.00
2018-06-13T20:37:54.702Z,14.00
2018-06-13T20:40:30.241Z,14.00
2018-06-13T20:43:05.589Z,14.00
2018-06-13T20:45:41.175Z,14.00
2018-06-13T20:48:16.730Z,14.00
2018-06-13T20:50:52.371Z,14.00
2018-06-13T20:53:27.833Z,14.00
2018-06-13T20:56:03.515Z,13.90
2018-06-13T20:58:39.045Z,13.90
2018-06-13T21:01:14.534Z,13.90
2018-06-13T21:03:49.969Z,13.90
2018-06-13T21:06:25.630Z,13.90
2018-06-13T21:09:01.196Z,13.80
2018-06-13T21:11:36.891Z,13.80
2018-06-13T21:14:12.261Z,13.90
2018-06-13T21:16:47.816Z,13.80
2018-06-13T21:19:23.258Z,13.80
2018-06-13T21:21:58.880Z,13.80
2018-06-13T21:24:34.324Z,13.70
2018-06-13T21:27:09.923Z,13.70
2018-06-13T21:29:45.323Z,13.60
2018-06-13T21:32:20.740Z,13.60
2018-06-13T21:34:56.309Z,13.60
2018-06-13T21:37:31.722Z,13.60
2018-06-13T21:40:07.332Z,13.60
2018-06-13T21:42:42.953Z,13.60
2018-06-13T21:45:18.471Z,13.60
2018-06-13T21:47:54.226Z,13.60
2018-06-13T21:50:30.728Z,13.50
2018-06-13T21:53:06.315Z,13.50
2018-06-13T21:55:41.763Z,13.50
2018-06-13T21:58:17.409Z,13.40
2018-06-13T22:00:53.076Z,13.30
2018-06-13T22:03:28.721Z,13.20
2018-06-13T22:08:39.565Z,12.90
2018-06-13T22:11:15.000Z,12.80
2018-06-13T22:13:50.469Z,12.70
2018-06-13T22:16:26.212Z,12.60
2018-06-13T22:19:01.813Z,12.60
2018-06-13T22:21:37.396Z,12.50
2018-06-13T22:24:13.111Z,12.40
2018-06-13T22:26:48.703Z,12.30
2018-06-13T22:29:24.351Z,12.20
2018-06-13T22:31:59.902Z,12.00
2018-06-13T22:34:35.524Z,11.90
2018-06-13T22:37:11.065Z,11.90
2018-06-13T22:39:46.553Z,11.80
2018-06-13T22:42:21.973Z,11.60
2018-06-13T22:44:57.493Z,11.60
2018-06-13T22:47:33.050Z,11.60
2018-06-13T22:50:08.589Z,11.60
2018-06-13T22:52:44.188Z,11.40
2018-06-13T22:55:19.748Z,11.40
2018-06-13T22:57:55.377Z,11.30
2018-06-13T23:01:09.816Z,11.20
2018-06-13T23:03:45.385Z,11.20
2018-06-13T23:06:21.008Z,11.20
2018-06-13T23:08:56.544Z,11.00
2018-06-13T23:11:32.202Z,10.90
2018-06-13T23:14:07.675Z,10.90
2018-06-13T23:16:43.089Z,10.80
2018-06-13T23:19:18.483Z,10.80
2018-06-13T23:21:54.016Z,10.70
2018-06-13T23:24:29.613Z,10.70
2018-06-13T23:27:05.168Z,10.60
2018-06-13T23:29:40.753Z,10.60
2018-06-13T23:32:16.276Z,10.50
2018-06-13T23:34:51.949Z,10.50
2018-06-13T23:37:27.664Z,10.60
2018-06-13T23:40:03.229Z,10.80
2018-06-13T23:42:38.865Z,10.90
2018-06-13T23:45:14.353Z,11.00
2018-06-13T23:47:49.825Z,11.10
2018-06-13T23:50:25.337Z,11.20
2018-06-13T23:53:01.007Z,11.20
2018-06-13T23:55:36.420Z,11.30
2018-06-13T23:58:12.052Z,11.30
